createdAt,value
2023-03-13T00:01:17.864Z,8.73
2023-03-13T00:03:45.021Z,11.73
2023-03-13T00:06:12.450Z,11.40
2023-03-13T00:08:39.623Z,7.05
2023-03-13T00:11:10.284Z,8.93
2023-03-13T00:13:37.902Z,9.27
2023-03-13T00:16:07.630Z,9.93
2023-03-13T00:18:35.007Z,9.75
2023-03-13T00:21:04.510Z,10.57
2023-03-13T00:23:33.046Z,11.77
2023-03-13T00:26:02.435Z,9.60
2023-03-13T00:28:32.573Z,8.13
2023-03-13T00:31:02.730Z,9.15
2023-03-13T00:33:29.723Z,11.50
2023-03-13T00:36:01.217Z,10.13
2023-03-13T00:38:29.557Z,9.98
2023-03-13T00:41:09.149Z,13.13
2023-03-13T00:43:36.062Z,10.38
2023-03-13T00:46:03.191Z,9.68
2023-03-13T00:48:30.492Z,9.48
2023-03-13T00:50:57.521Z,11.05
2023-03-13T00:53:24.471Z,13.25
2023-03-13T00:56:04.004Z,9.50
2023-03-13T00:58:33.356Z,8.93
2023-03-13T01:01:11.154Z,9.32
2023-03-13T01:03:39.400Z,9.65
2023-03-13T01:06:09.013Z,7.35
2023-03-13T01:08:36.524Z,7.45
2023-03-13T01:11:08.884Z,9.35
2023-03-13T01:13:36.255Z,8.80
2023-03-13T01:16:11.373Z,10.30
2023-03-13T01:18:40.734Z,8.43
2023-03-13T01:21:08.144Z,9.13
2023-03-13T01:23:35.759Z,10.05
2023-03-13T01:26:05.057Z,9.55
2023-03-13T01:28:32.422Z,9.18
2023-03-13T01:31:00.342Z,9.07
2023-03-13T01:33:27.466Z,10.00
2023-03-13T01:36:02.625Z,8.95
2023-03-13T01:38:29.519Z,14.27
2023-03-13T01:40:56.379Z,8.52
2023-03-13T01:43:27.936Z,10.45
2023-03-13T01:46:20.040Z,10.20
2023-03-13T01:48:57.726Z,9.93
2023-03-13T01:51:35.486Z,10.63
2023-03-13T01:54:09.558Z,8.40
2023-03-13T01:56:54.297Z,10.50
2023-03-13T01:59:48.187Z,10.90
2023-03-13T02:02:16.402Z,10.88
2023-03-13T02:04:50.867Z,12.07
2023-03-13T02:07:25.321Z,12.52
2023-03-13T02:09:55.595Z,10.82
2023-03-13T02:12:29.794Z,9.38
2023-03-13T02:14:59.495Z,10.02
2023-03-13T02:17:27.465Z,9.93
2023-03-13T02:19:54.284Z,9.27
2023-03-13T02:22:43.952Z,10.40
2023-03-13T02:25:19.959Z,9.57
2023-03-13T02:27:48.463Z,9.68
2023-03-13T02:30:15.782Z,11.63
2023-03-13T02:32:44.300Z,11.05
2023-03-13T02:35:15.073Z,10.23
2023-03-13T02:37:44.192Z,10.73
2023-03-13T02:40:15.465Z,12.73
2023-03-13T02:42:45.373Z,10.48
2023-03-13T02:45:16.499Z,11.98
2023-03-13T02:47:43.692Z,10.02
2023-03-13T02:50:12.647Z,12.32
2023-03-13T02:52:46.746Z,8.70
2023-03-13T02:55:19.159Z,8.77
2023-03-13T02:57:46.056Z,14.00
2023-03-13T03:00:13.292Z,9.85
2023-03-13T03:02:40.109Z,10.38
2023-03-13T03:05:07.298Z,10.63
2023-03-13T03:07:34.155Z,10.82
2023-03-13T03:10:01.068Z,9.32
2023-03-13T03:12:28.205Z,8.07
2023-03-13T03:14:55.127Z,8.07
2023-03-13T03:17:22.020Z,8.95
2023-03-13T03:19:48.866Z,11.65
2023-03-13T03:22:15.760Z,9.93
2023-03-13T03:24:42.585Z,8.63
2023-03-13T03:27:09.443Z,9.77
2023-03-13T03:29:36.368Z,8.65
2023-03-13T03:32:03.241Z,7.85
2023-03-13T03:34:30.385Z,8.93
2023-03-13T03:36:57.449Z,9.63
2023-03-13T03:39:24.493Z,8.93
2023-03-13T03:41:51.327Z,10.07
2023-03-13T03:44:18.203Z,11.40
2023-03-13T03:46:45.134Z,10.85
2023-03-13T03:49:11.998Z,9.55
2023-03-13T03:51:38.963Z,9.40
2023-03-13T03:54:05.822Z,9.43
2023-03-13T03:56:32.611Z,10.23
2023-03-13T03:58:59.500Z,9.73
2023-03-13T04:01:26.420Z,8.98
2023-03-13T04:03:53.300Z,7.65
2023-03-13T04:06:20.187Z,10.07
2023-03-13T04:08:47.058Z,7.25
2023-03-13T04:11:13.929Z,8.90
2023-03-13T04:13:40.815Z,7.75
2023-03-13T04:16:10.761Z,9.10
2023-03-13T04:18:37.713Z,9.13
2023-03-13T04:21:06.455Z,7.22
2023-03-13T04:23:33.322Z,9.68
2023-03-13T04:26:00.156Z,8.57
2023-03-13T04:28:27.013Z,9.50
2023-03-13T04:30:57.370Z,11.55
2023-03-13T04:33:27.507Z,8.68
2023-03-13T04:35:54.381Z,7.15
2023-03-13T04:38:21.382Z,9.35
2023-03-13T04:40:48.822Z,8.23
2023-03-13T04:43:15.624Z,7.65
2023-03-13T04:45:42.425Z,6.70
2023-03-13T04:48:09.312Z,7.90
2023-03-13T04:50:36.141Z,9.15
2023-03-13T04:53:02.958Z,9.25
2023-03-13T04:55:29.825Z,11.40
2023-03-13T04:57:56.854Z,13.52
2023-03-13T05:00:23.761Z,8.77
2023-03-13T05:02:50.577Z,11.20
2023-03-13T05:05:17.638Z,8.40
2023-03-13T05:07:44.556Z,9.10
2023-03-13T05:10:11.656Z,7.43
2023-03-13T05:12:38.524Z,8.57
2023-03-13T05:15:05.636Z,11.27
2023-03-13T05:17:33.171Z,8.80
2023-03-13T05:19:59.972Z,9.30
2023-03-13T05:22:26.825Z,8.30
2023-03-13T05:24:54.221Z,7.10
2023-03-13T05:27:21.043Z,9.10
2023-03-13T05:29:47.939Z,10.05
2023-03-13T05:32:14.764Z,10.52
2023-03-13T05:34:41.598Z,11.52
2023-03-13T05:37:08.447Z,8.10
2023-03-13T05:39:35.400Z,10.75
2023-03-13T05:42:02.239Z,7.13
2023-03-13T05:44:29.095Z,8.50
2023-03-13T05:46:55.989Z,10.43
2023-03-13T05:49:22.825Z,8.13
2023-03-13T05:51:49.686Z,9.25
2023-03-13T05:54:16.660Z,13.60
2023-03-13T05:56:44.970Z,9.23
2023-03-13T05:59:11.804Z,10.35
2023-03-13T06:01:38.642Z,11.93
2023-03-13T06:04:05.595Z,8.98
2023-03-13T06:06:32.571Z,8.63
2023-03-13T06:08:59.412Z,13.27
2023-03-13T06:11:26.408Z,11.50
2023-03-13T06:13:53.502Z,8.80
2023-03-13T06:16:20.459Z,9.13
2023-03-13T06:18:47.327Z,7.25
2023-03-13T06:21:14.242Z,9.23
2023-03-13T06:23:42.317Z,8.45
2023-03-13T06:26:09.321Z,8.45
2023-03-13T06:28:36.298Z,7.80
2023-03-13T06:31:04.796Z,10.40
2023-03-13T06:33:31.804Z,8.55
2023-03-13T06:36:00.218Z,9.88
2023-03-13T06:38:28.183Z,8.50
2023-03-13T06:40:55.264Z,8.38
2023-03-13T06:43:22.347Z,11.38
2023-03-13T06:45:49.709Z,12.52
2023-03-13T06:48:16.702Z,10.35
2023-03-13T06:50:43.728Z,10.05
2023-03-13T06:53:18.949Z,10.38
2023-03-13T06:55:46.547Z,11.40
2023-03-13T06:58:25.240Z,9.38
2023-03-13T07:00:57.933Z,9.23
2023-03-13T07:03:24.972Z,9.98
2023-03-13T07:05:59.015Z,12.43
2023-03-13T07:08:26.822Z,12.57
2023-03-13T07:10:58.857Z,11.82
2023-03-13T07:13:26.122Z,12.15
2023-03-13T07:15:53.916Z,12.48
2023-03-13T07:18:22.412Z,11.65
2023-03-13T07:21:00.020Z,13.32
2023-03-13T07:23:28.954Z,14.85
2023-03-13T07:25:57.924Z,13.55
2023-03-13T07:28:26.083Z,13.02
2023-03-13T07:30:53.331Z,11.45
2023-03-13T07:33:20.417Z,12.70
2023-03-13T07:35:51.749Z,13.80
2023-03-13T07:38:19.513Z,16.20
2023-03-13T07:40:55.512Z,47.72
2023-03-13T07:43:22.912Z,27.50
2023-03-13T07:45:55.345Z,20.23
2023-03-13T07:48:23.874Z,12.52
2023-03-13T07:50:51.313Z,18.23
2023-03-13T07:53:21.363Z,21.55
2023-03-13T07:56:01.486Z,13.75
2023-03-13T07:58:31.591Z,14.25
2023-03-13T08:00:59.450Z,15.65
2023-03-13T08:03:26.932Z,15.98
2023-03-13T08:06:05.985Z,14.77
2023-03-13T08:08:33.209Z,14.20
2023-03-13T08:11:09.477Z,13.93
2023-03-13T08:13:36.820Z,17.13
2023-03-13T08:16:15.064Z,31.65
2023-03-13T08:18:47.019Z,41.38
2023-03-13T08:21:22.674Z,48.22
2023-03-13T08:23:54.307Z,40.92
2023-03-13T08:26:22.790Z,38.80
2023-03-13T08:28:53.729Z,45.70
2023-03-13T08:31:23.454Z,46.35
2023-03-13T08:33:50.535Z,42.00
2023-03-13T08:36:24.681Z,49.45
2023-03-13T08:38:53.479Z,44.22
2023-03-13T08:41:26.309Z,36.67
2023-03-13T08:43:55.304Z,30.27
2023-03-13T08:46:22.902Z,31.77
2023-03-13T08:48:55.295Z,24.85
2023-03-13T08:51:24.123Z,23.38
2023-03-13T08:53:51.930Z,19.48
2023-03-13T08:56:21.482Z,12.77
2023-03-13T08:58:55.819Z,12.50
2023-03-13T09:01:25.821Z,9.00
2023-03-13T09:03:52.963Z,10.40
2023-03-13T09:06:20.287Z,10.82
2023-03-13T09:08:47.227Z,12.48
2023-03-13T09:11:19.337Z,12.52
2023-03-13T09:13:49.446Z,12.95
2023-03-13T09:16:22.300Z,12.23
2023-03-13T09:18:50.368Z,13.40
2023-03-13T09:21:22.978Z,13.60
2023-03-13T09:23:50.543Z,13.93
2023-03-13T09:26:20.995Z,11.90
2023-03-13T09:28:49.664Z,12.25
2023-03-13T09:31:19.353Z,11.02
2023-03-13T09:33:47.844Z,9.30
2023-03-13T09:36:14.862Z,10.75
2023-03-13T09:38:41.930Z,11.95
2023-03-13T09:41:17.768Z,13.85
2023-03-13T09:43:44.618Z,14.20
2023-03-13T09:46:47.374Z,10.65
2023-03-13T09:49:37.696Z,19.38
2023-03-13T09:52:15.235Z,26.42
2023-03-13T09:54:49.741Z,15.82
2023-03-13T09:57:42.937Z,52.90
2023-03-13T10:00:39.593Z,37.42
2023-03-13T10:03:51.415Z,18.10
2023-03-13T10:06:23.261Z,9.05
2023-03-13T10:08:50.203Z,20.92
2023-03-13T10:11:38.804Z,23.92
2023-03-13T10:14:29.561Z,14.20
2023-03-13T10:17:20.760Z,23.15
2023-03-13T10:19:52.728Z,33.00
2023-03-13T10:22:23.892Z,24.17
2023-03-13T10:25:05.926Z,31.45
2023-03-13T10:27:42.440Z,16.02
2023-03-13T10:30:25.028Z,22.00
2023-03-13T10:32:54.941Z,11.88
2023-03-13T10:35:25.089Z,10.95
2023-03-13T10:38:03.501Z,39.78
2023-03-13T10:40:30.506Z,21.33
2023-03-13T10:43:17.177Z,190.05
2023-03-13T10:45:44.516Z,109.80
2023-03-13T10:48:36.690Z,64.50
2023-03-13T10:51:03.557Z,19.48
2023-03-13T10:53:30.624Z,52.45
2023-03-13T10:56:10.081Z,23.08
2023-03-13T10:58:43.786Z,15.18
2023-03-13T11:03:47.279Z,11.90
2023-03-13T11:06:28.353Z,38.30
2023-03-13T11:09:14.031Z,18.52
2023-03-13T11:11:53.170Z,24.13
2023-03-13T11:14:27.295Z,67.82
2023-03-13T11:17:03.617Z,41.13
2023-03-13T11:19:42.559Z,17.23
2023-03-13T11:22:38.290Z,32.28
2023-03-13T11:25:30.075Z,32.15
2023-03-13T11:28:33.670Z,16.73
2023-03-13T11:31:09.648Z,13.05
2023-03-13T11:34:14.058Z,15.73
2023-03-13T11:37:03.190Z,14.15
2023-03-13T11:39:45.161Z,16.45
2023-03-13T11:42:30.702Z,15.40
2023-03-13T11:45:22.294Z,18.60
2023-03-13T11:48:19.265Z,17.27
2023-03-13T11:51:03.112Z,45.50
2023-03-13T11:53:51.939Z,33.60
2023-03-13T11:56:27.765Z,42.05
2023-03-13T11:59:02.108Z,29.52
2023-03-13T12:01:41.711Z,28.77
2023-03-13T12:04:20.028Z,12.32
2023-03-13T12:06:56.941Z,11.10
2023-03-13T12:09:39.849Z,7.13
2023-03-13T12:12:33.741Z,7.65
2023-03-13T12:15:06.510Z,6.13
2023-03-13T12:17:59.045Z,11.33
2023-03-13T12:20:30.743Z,12.63
2023-03-13T12:23:17.199Z,13.30
2023-03-13T12:25:49.809Z,9.48
2023-03-13T12:28:24.897Z,12.93
2023-03-13T12:31:09.673Z,10.30
2023-03-13T12:33:44.316Z,6.00
2023-03-13T12:36:20.711Z,7.30
2023-03-13T12:38:58.648Z,4.20
2023-03-13T12:41:43.818Z,8.35
2023-03-13T12:44:20.121Z,6.18
2023-03-13T12:47:01.287Z,6.22
2023-03-13T12:49:56.030Z,7.07
2023-03-13T12:52:48.536Z,9.60
2023-03-13T12:55:37.017Z,8.77
2023-03-13T12:58:15.145Z,8.90
2023-03-13T13:00:46.252Z,9.52
2023-03-13T13:03:38.419Z,11.35
2023-03-13T13:06:11.471Z,8.70
2023-03-13T13:08:53.354Z,8.20
2023-03-13T13:11:38.260Z,8.50
2023-03-13T13:14:17.252Z,11.55
2023-03-13T13:17:29.493Z,8.38
2023-03-13T13:23:34.241Z,7.85
2023-03-13T13:26:37.360Z,10.35
2023-03-13T13:29:13.428Z,10.02
2023-03-13T13:31:57.176Z,10.45
2023-03-13T13:34:31.099Z,10.25
2023-03-13T13:37:00.025Z,8.30
2023-03-13T13:39:50.042Z,10.90
2023-03-13T13:42:42.014Z,11.88
2023-03-13T13:45:17.680Z,10.40
2023-03-13T13:47:48.000Z,9.52
2023-03-13T13:50:31.064Z,9.85
2023-03-13T13:53:33.534Z,12.27
2023-03-13T13:56:03.381Z,10.90
2023-03-13T13:58:32.408Z,8.23
2023-03-13T14:01:11.439Z,9.85
2023-03-13T14:03:42.387Z,8.50
2023-03-13T14:06:20.320Z,9.02
2023-03-13T14:08:51.452Z,9.15
2023-03-13T14:11:35.119Z,13.25
2023-03-13T14:14:16.157Z,17.58
2023-03-13T14:16:52.486Z,9.85
2023-03-13T14:19:39.832Z,8.32
2023-03-13T14:22:09.408Z,9.57
2023-03-13T14:24:36.660Z,9.02
2023-03-13T14:27:18.144Z,8.55
2023-03-13T14:30:05.704Z,10.10
2023-03-13T14:32:32.803Z,7.95
2023-03-13T14:34:59.782Z,9.65
2023-03-13T14:37:47.583Z,7.93
2023-03-13T14:40:26.852Z,5.53
2023-03-13T14:42:59.159Z,7.45
2023-03-13T14:45:30.156Z,7.10
2023-03-13T14:48:22.774Z,7.45
2023-03-13T14:50:59.676Z,7.88
2023-03-13T14:53:36.228Z,7.97
2023-03-13T14:56:21.133Z,7.70
2023-03-13T14:58:51.617Z,7.30
2023-03-13T15:01:30.707Z,8.18
2023-03-13T15:03:57.863Z,7.05
2023-03-13T15:06:25.923Z,6.93
2023-03-13T15:09:14.132Z,9.80
2023-03-13T15:11:57.478Z,5.40
2023-03-13T15:14:42.139Z,8.57
2023-03-13T15:17:18.053Z,6.65
2023-03-13T15:19:55.668Z,6.13
2023-03-13T15:22:28.249Z,10.13
2023-03-13T15:25:05.654Z,7.38
2023-03-13T15:27:33.159Z,9.02
2023-03-13T15:30:00.107Z,7.90
2023-03-13T15:32:33.920Z,6.30
2023-03-13T15:35:02.160Z,5.57
2023-03-13T15:37:30.259Z,4.97
2023-03-13T15:39:58.194Z,4.82
2023-03-13T15:42:25.610Z,4.55
2023-03-13T15:44:52.504Z,18.63
2023-03-13T15:47:21.662Z,6.72
2023-03-13T15:49:48.799Z,6.30
2023-03-13T15:52:23.010Z,3.75
2023-03-13T15:54:51.424Z,6.95
2023-03-13T15:57:26.317Z,4.38
2023-03-13T15:59:53.783Z,5.97
2023-03-13T16:02:23.559Z,4.35
2023-03-13T16:04:51.440Z,4.43
2023-03-13T16:07:21.651Z,5.80
2023-03-13T16:09:49.000Z,10.30
2023-03-13T16:12:16.075Z,7.28
2023-03-13T16:14:43.000Z,7.07
2023-03-13T16:17:17.868Z,6.45
2023-03-13T16:19:46.074Z,6.75
2023-03-13T16:22:13.348Z,5.85
2023-03-13T16:24:41.101Z,5.82
2023-03-13T16:27:14.299Z,5.85
2023-03-13T16:29:41.172Z,5.97
2023-03-13T16:32:15.712Z,4.72
2023-03-13T16:34:43.165Z,4.30
2023-03-13T16:37:20.256Z,5.13
2023-03-13T16:39:48.477Z,5.63
2023-03-13T16:42:15.302Z,7.88
2023-03-13T16:44:42.261Z,4.82
2023-03-13T16:47:36.008Z,6.68
2023-03-13T16:50:13.926Z,5.95
2023-03-13T16:52:40.808Z,7.82
2023-03-13T16:55:08.036Z,8.52
2023-03-13T16:57:34.854Z,6.60
2023-03-13T17:00:01.993Z,6.60
2023-03-13T17:02:29.679Z,8.85
2023-03-13T17:04:56.597Z,7.95
2023-03-13T17:07:26.789Z,7.50
2023-03-13T17:09:53.672Z,6.90
2023-03-13T17:12:20.622Z,6.47
2023-03-13T17:14:47.743Z,6.63
2023-03-13T17:17:21.522Z,6.28
2023-03-13T17:22:17.826Z,5.93
2023-03-13T17:24:44.828Z,12.13
2023-03-13T17:27:17.030Z,7.85
2023-03-13T17:29:44.805Z,7.40
2023-03-13T17:32:13.322Z,10.70
2023-03-13T17:34:41.452Z,7.10
2023-03-13T17:37:17.592Z,7.03
2023-03-13T17:39:45.292Z,7.65
2023-03-13T17:42:12.873Z,7.25
2023-03-13T17:44:41.249Z,11.15
2023-03-13T17:47:17.407Z,8.20
2023-03-13T17:49:45.041Z,7.47
2023-03-13T17:52:16.462Z,9.38
2023-03-13T17:54:44.988Z,7.78
2023-03-13T17:57:20.684Z,9.20
2023-03-13T17:59:49.618Z,6.43
2023-03-13T18:02:17.526Z,7.57
2023-03-13T18:04:45.166Z,7.38
2023-03-13T18:07:27.434Z,9.27
2023-03-13T18:09:54.491Z,6.95
2023-03-13T18:12:21.605Z,7.75
2023-03-13T18:14:48.519Z,7.50
2023-03-13T18:17:18.939Z,8.40
2023-03-13T18:19:46.550Z,8.18
2023-03-13T18:22:16.481Z,7.88
2023-03-13T18:24:43.674Z,6.95
2023-03-13T18:27:14.524Z,11.00
2023-03-13T18:29:41.775Z,10.65
2023-03-13T18:32:10.890Z,9.70
2023-03-13T18:34:38.064Z,11.68
2023-03-13T18:37:17.668Z,11.10
2023-03-13T18:39:44.609Z,8.63
2023-03-13T18:42:11.695Z,8.30
2023-03-13T18:44:38.537Z,8.05
2023-03-13T18:47:16.902Z,7.70
2023-03-13T18:49:44.173Z,6.88
2023-03-13T18:52:11.697Z,5.85
2023-03-13T18:54:39.102Z,7.50
2023-03-13T18:57:19.872Z,6.80
2023-03-13T18:59:47.078Z,7.40
2023-03-13T19:02:16.250Z,5.60
2023-03-13T19:04:45.857Z,7.47
2023-03-13T19:07:16.030Z,7.60
2023-03-13T19:09:44.739Z,8.05
2023-03-13T19:12:15.595Z,7.40
2023-03-13T19:14:42.916Z,6.78
2023-03-13T19:17:29.620Z,9.85
2023-03-13T19:19:59.225Z,8.10
2023-03-13T19:22:26.384Z,10.05
2023-03-13T19:24:53.494Z,10.82
2023-03-13T19:27:20.381Z,11.23
2023-03-13T19:29:47.380Z,7.65
2023-03-13T19:32:18.685Z,7.32
2023-03-13T19:34:45.747Z,8.38
2023-03-13T19:37:16.200Z,10.68
2023-03-13T19:39:43.218Z,9.20
2023-03-13T19:42:10.255Z,8.82
2023-03-13T19:44:37.869Z,6.25
2023-03-13T19:47:05.384Z,9.98
2023-03-13T19:49:33.602Z,9.98
2023-03-13T19:52:00.534Z,8.60
2023-03-13T19:54:27.364Z,10.15
2023-03-13T19:56:54.283Z,7.97
2023-03-13T19:59:23.596Z,8.43
2023-03-13T20:01:50.814Z,9.55
2023-03-13T20:04:17.697Z,8.10
2023-03-13T20:06:45.665Z,8.02
2023-03-13T20:09:15.748Z,9.57
2023-03-13T20:11:43.663Z,9.15
2023-03-13T20:14:11.392Z,8.02
2023-03-13T20:16:38.425Z,6.97
2023-03-13T20:19:05.465Z,8.95
2023-03-13T20:21:35.344Z,10.85
2023-03-13T20:24:03.042Z,10.02
2023-03-13T20:26:30.452Z,8.60
2023-03-13T20:28:58.099Z,8.73
2023-03-13T20:31:28.067Z,8.48
2023-03-13T20:33:55.659Z,9.55
2023-03-13T20:36:22.994Z,7.85
2023-03-13T20:38:49.988Z,7.55
2023-03-13T20:41:17.194Z,7.95
2023-03-13T20:43:43.973Z,9.85
2023-03-13T20:46:11.094Z,7.68
2023-03-13T20:48:39.821Z,8.18
2023-03-13T20:51:08.244Z,7.43
2023-03-13T20:53:37.022Z,6.90
2023-03-13T20:56:06.831Z,7.88
2023-03-13T20:58:34.913Z,7.22
2023-03-13T21:01:02.798Z,9.45
2023-03-13T21:03:31.868Z,10.02
2023-03-13T21:05:58.697Z,7.32
2023-03-13T21:08:25.566Z,9.30
2023-03-13T21:10:52.409Z,9.55
2023-03-13T21:13:19.245Z,7.95
2023-03-13T21:15:46.089Z,8.63
2023-03-13T21:18:12.974Z,11.77
2023-03-13T21:20:39.859Z,9.35
2023-03-13T21:23:06.764Z,7.68
2023-03-13T21:25:33.684Z,7.65
2023-03-13T21:28:00.740Z,8.60
2023-03-13T21:30:27.721Z,6.80
2023-03-13T21:32:54.645Z,9.40
2023-03-13T21:35:21.665Z,7.80
2023-03-13T21:37:49.003Z,7.00
2023-03-13T21:40:15.877Z,8.88
2023-03-13T21:42:42.744Z,7.05
2023-03-13T21:45:10.531Z,7.28
2023-03-13T21:47:37.366Z,8.38
2023-03-13T21:50:07.276Z,7.22
2023-03-13T21:52:40.771Z,8.52
2023-03-13T21:55:13.170Z,7.00
2023-03-13T21:57:41.167Z,8.98
2023-03-13T22:00:09.081Z,8.52
2023-03-13T22:02:36.439Z,9.98
2023-03-13T22:05:04.588Z,8.88
2023-03-13T22:07:31.590Z,7.80
2023-03-13T22:09:58.674Z,13.38
2023-03-13T22:12:26.463Z,11.10
2023-03-13T22:14:56.123Z,9.90
2023-03-13T22:17:24.488Z,9.05
2023-03-13T22:19:51.399Z,6.40
2023-03-13T22:22:20.042Z,6.85
2023-03-13T22:24:46.910Z,6.20
2023-03-13T22:27:15.582Z,10.23
2023-03-13T22:29:42.441Z,5.20
2023-03-13T22:32:09.878Z,10.50
2023-03-13T22:34:36.902Z,11.20
2023-03-13T22:37:03.846Z,10.27
2023-03-13T22:39:30.694Z,6.53
2023-03-13T22:41:57.558Z,6.90
2023-03-13T22:44:24.499Z,7.05
2023-03-13T22:46:51.316Z,8.70
2023-03-13T22:49:18.222Z,6.50
2023-03-13T22:51:45.049Z,8.38
2023-03-13T22:54:11.922Z,13.32
2023-03-13T22:56:38.770Z,8.30
2023-03-13T22:59:06.266Z,9.18
2023-03-13T23:01:33.262Z,9.25
2023-03-13T23:04:00.215Z,8.93
2023-03-13T23:06:27.408Z,9.90
2023-03-13T23:08:54.347Z,11.30
2023-03-13T23:11:21.254Z,7.25
2023-03-13T23:13:48.523Z,8.35
2023-03-13T23:16:15.465Z,8.18
2023-03-13T23:18:42.530Z,7.43
2023-03-13T23:21:12.487Z,12.13
2023-03-13T23:23:39.791Z,11.38
2023-03-13T23:26:09.659Z,13.52
2023-03-13T23:28:37.154Z,11.80
2023-03-13T23:31:15.695Z,11.65
2023-03-13T23:33:43.215Z,11.27
2023-03-13T23:36:15.901Z,11.43
2023-03-13T23:38:43.345Z,11.45
2023-03-13T23:41:14.309Z,11.02
2023-03-13T23:43:41.942Z,8.38
2023-03-13T23:46:29.821Z,8.88
2023-03-13T23:48:58.336Z,7.68
2023-03-13T23:51:26.364Z,6.70
2023-03-13T23:53:53.310Z,9.20
2023-03-13T23:56:20.199Z,7.40
2023-03-13T23:58:47.069Z,9.25
